Time;durP1;ratioP1;P1;durP2;ratioP2;P2;SDS_P1;SDS_P2;PMS_P1;PMS_P2;Temp;Humidity;BMP_temperature;BMP_pressure;BME280_temperature;BME280_humidity;BME280_pressure;Samples;Min_cycle;Max_cycle;Signal;HPM_P1;HPM_P2
2021/08/27 00:00:22;;;;;;;8.02;1.75;;;15.30;99.90;;;;;;6151526;23;20359;-65
2021/08/27 00:02:48;;;;;;;6.43;1.60;;;15.40;99.90;;;;;;6151406;23;20641;-65
2021/08/27 00:05:13;;;;;;;6.30;1.50;;;15.40;99.90;;;;;;6151242;23;20053;-65
2021/08/27 00:07:39;;;;;;;8.82;2.03;;;15.40;99.90;;;;;;6124150;23;20017;-65
2021/08/27 00:10:05;;;;;;;9.75;1.90;;;15.30;99.90;;;;;;6124071;23;20464;-64
2021/08/27 00:12:31;;;;;;;6.97;1.60;;;15.20;99.90;;;;;;6150915;23;20013;-64
2021/08/27 00:14:56;;;;;;;8.88;2.15;;;15.10;99.90;;;;;;6151348;23;20113;-65
2021/08/27 00:17:29;;;;;;;7.15;1.95;;;15.00;99.90;;;;;;6149951;23;20018;-65
2021/08/27 00:19:56;;;;;;;7.35;1.85;;;14.90;99.90;;;;;;6100677;23;20052;-65
2021/08/27 00:22:22;;;;;;;7.88;1.92;;;14.90;99.90;;;;;;6150206;23;20484;-64
2021/08/27 00:24:48;;;;;;;8.80;2.00;;;14.80;99.90;;;;;;6151718;23;20022;-64
2021/08/27 00:27:13;;;;;;;8.88;1.95;;;14.80;99.90;;;;;;6151410;23;20124;-65
2021/08/27 00:29:39;;;;;;;7.68;2.00;;;14.80;99.90;;;;;;6100571;23;20032;-64
2021/08/27 00:32:04;;;;;;;8.90;1.80;;;14.70;99.90;;;;;;6126306;23;20389;-65
2021/08/27 00:34:30;;;;;;;9.60;1.85;;;14.70;99.90;;;;;;6151394;23;20009;-65
2021/08/27 00:36:55;;;;;;;6.57;1.92;;;14.70;99.90;;;;;;6150800;23;20028;-65
2021/08/27 00:39:21;;;;;;;6.30;1.95;;;14.70;99.90;;;;;;6150919;23;20049;-65
2021/08/27 00:41:46;;;;;;;7.13;2.50;;;14.70;99.90;;;;;;6151508;23;20426;-65
2021/08/27 00:44:12;;;;;;;6.53;1.73;;;14.70;99.90;;;;;;6151997;23;20013;-65
2021/08/27 00:46:38;;;;;;;10.30;2.38;;;14.60;99.90;;;;;;6151646;23;20089;-65
2021/08/27 00:49:03;;;;;;;6.68;2.33;;;14.60;99.90;;;;;;6151058;23;20064;-65
2021/08/27 00:51:29;;;;;;;6.65;2.30;;;14.50;99.90;;;;;;6151249;23;20009;-65
2021/08/27 00:53:54;;;;;;;10.07;2.35;;;14.60;99.90;;;;;;6150967;23;20489;-65
2021/08/27 00:56:20;;;;;;;7.80;1.83;;;14.60;99.90;;;;;;6151417;23;20078;-65
2021/08/27 00:58:45;;;;;;;6.32;2.40;;;14.60;99.90;;;;;;6151427;23;20021;-65
2021/08/27 01:01:11;;;;;;;6.75;2.03;;;14.60;99.90;;;;;;6152344;23;20084;-65
2021/08/27 01:03:37;;;;;;;10.15;2.63;;;14.60;99.90;;;;;;6152890;23;20076;-65
2021/08/27 01:06:26;;;;;;;9.65;2.22;;;14.60;99.90;;;;;;6153157;23;20096;-65
2021/08/27 01:09:02;;;;;;;8.80;2.70;;;14.60;99.90;;;;;;6152082;23;20018;-65
2021/08/27 01:11:34;;;;;;;7.82;2.80;;;14.70;99.90;;;;;;6151976;23;20072;-65
2021/08/27 01:14:06;;;;;;;10.20;2.25;;;14.60;99.90;;;;;;6151899;23;20434;-65
2021/08/27 01:16:47;;;;;;;8.25;2.55;;;14.70;99.90;;;;;;6127367;23;20096;-65
2021/08/27 01:19:46;;;;;;;7.25;2.65;;;14.70;99.90;;;;;;6125818;23;20021;-65
2021/08/27 01:22:30;;;;;;;6.95;2.40;;;14.60;99.90;;;;;;6153114;23;20021;-65
2021/08/27 01:24:57;;;;;;;7.65;2.42;;;14.70;99.90;;;;;;6152775;23;20670;-65
2021/08/27 01:27:25;;;;;;;7.80;1.90;;;14.60;99.90;;;;;;6153210;23;20770;-65
2021/08/27 01:30:03;;;;;;;6.20;2.00;;;14.60;99.90;;;;;;6102106;23;20005;-65
2021/08/27 01:32:38;;;;;;;9.15;2.30;;;14.60;99.90;;;;;;6153630;23;20029;-65
2021/08/27 01:35:06;;;;;;;5.82;2.17;;;14.60;99.90;;;;;;6153695;23;20041;-65
2021/08/27 01:37:33;;;;;;;6.72;2.20;;;14.60;99.90;;;;;;6152248;23;20021;-65
2021/08/27 01:40:00;;;;;;;7.72;2.40;;;14.60;99.90;;;;;;6126194;23;20022;-65
2021/08/27 01:42:28;;;;;;;11.05;2.42;;;14.50;99.90;;;;;;6125179;23;20381;-65
2021/08/27 01:44:56;;;;;;;6.95;2.80;;;14.60;99.90;;;;;;6152994;23;20017;-65
2021/08/27 01:47:25;;;;;;;8.75;2.90;;;14.50;99.90;;;;;;6151744;23;20047;-65
2021/08/27 01:49:51;;;;;;;7.82;2.42;;;14.50;99.90;;;;;;6153304;23;20041;-65
2021/08/27 01:52:18;;;;;;;7.88;2.47;;;14.50;99.90;;;;;;6152475;23;20500;-65
2021/08/27 01:54:45;;;;;;;8.80;2.75;;;14.50;99.90;;;;;;6152361;23;20096;-65
2021/08/27 01:57:11;;;;;;;6.07;2.17;;;14.60;99.90;;;;;;6126900;23;20022;-65
2021/08/27 01:59:42;;;;;;;8.05;2.25;;;14.50;99.90;;;;;;6153027;23;20677;-65
2021/08/27 02:02:11;;;;;;;9.20;2.38;;;14.50;99.90;;;;;;6152452;23;20017;-65
2021/08/27 02:04:40;;;;;;;7.10;2.53;;;14.50;99.90;;;;;;6152685;23;20072;-65
2021/08/27 02:07:06;;;;;;;7.60;2.78;;;14.50;99.90;;;;;;6126661;23;20017;-65
2021/08/27 02:09:36;;;;;;;8.50;3.25;;;14.50;99.90;;;;;;6152129;23;20045;-65
2021/08/27 02:12:03;;;;;;;7.60;2.45;;;14.50;99.90;;;;;;6151950;23;20088;-65
2021/08/27 02:14:30;;;;;;;9.65;2.65;;;14.60;99.90;;;;;;6152857;23;20028;-65
2021/08/27 02:16:55;;;;;;;8.77;2.75;;;14.60;99.90;;;;;;6152052;23;20064;-65
2021/08/27 02:19:21;;;;;;;5.57;2.47;;;14.50;99.90;;;;;;6150206;23;20088;-65
2021/08/27 02:21:52;;;;;;;8.25;2.75;;;14.50;99.90;;;;;;6152784;23;20021;-65
2021/08/27 02:24:21;;;;;;;10.18;2.10;;;14.50;99.90;;;;;;6152531;23;20017;-65
2021/08/27 02:26:49;;;;;;;7.90;2.10;;;14.50;99.90;;;;;;6153504;23;20307;-65
2021/08/27 02:29:17;;;;;;;10.20;2.38;;;14.40;99.90;;;;;;6153121;23;20017;-65
2021/08/27 02:31:45;;;;;;;8.30;2.10;;;14.40;99.90;;;;;;6152367;23;20013;-65
2021/08/27 02:34:13;;;;;;;7.65;2.00;;;14.40;99.90;;;;;;6151982;23;20052;-65
2021/08/27 02:36:39;;;;;;;8.38;2.55;;;14.40;99.90;;;;;;6152376;23;20078;-65
2021/08/27 02:39:05;;;;;;;9.00;1.98;;;14.50;99.90;;;;;;6152334;23;20092;-65
2021/08/27 02:41:31;;;;;;;6.75;2.00;;;14.50;99.90;;;;;;6151924;23;20014;-65
2021/08/27 02:43:56;;;;;;;7.88;2.47;;;14.50;99.90;;;;;;6152585;23;20453;-65
2021/08/27 02:46:22;;;;;;;8.23;2.45;;;14.60;99.90;;;;;;6101279;23;20346;-65
2021/08/27 02:48:47;;;;;;;12.68;2.65;;;14.60;99.90;;;;;;6152773;23;20076;-65
2021/08/27 02:51:18;;;;;;;4.97;2.00;;;14.60;99.90;;;;;;6152244;23;20039;-65
2021/08/27 02:53:49;;;;;;;7.38;2.22;;;14.60;99.90;;;;;;6151356;23;20014;-65
2021/08/27 02:56:26;;;;;;;10.13;2.67;;;14.60;99.90;;;;;;6151629;23;20040;-65
2021/08/27 02:58:55;;;;;;;8.55;2.22;;;14.60;99.90;;;;;;6152223;23;20013;-65
2021/08/27 03:01:40;;;;;;;6.53;1.75;;;14.60;99.90;;;;;;6153070;23;20017;-65
2021/08/27 03:04:20;;;;;;;6.13;2.20;;;14.70;99.90;;;;;;6151553;23;20021;-65
2021/08/27 03:07:05;;;;;;;7.72;1.83;;;14.80;99.90;;;;;;6152512;23;20010;-65
2021/08/27 03:09:41;;;;;;;7.65;1.80;;;14.90;99.90;;;;;;6152052;23;20013;-64
2021/08/27 03:12:10;;;;;;;5.18;1.98;;;15.00;99.90;;;;;;6152012;23;20035;-65
2021/08/27 03:14:40;;;;;;;7.20;2.00;;;15.00;99.90;;;;;;6125830;23;20017;-65
2021/08/27 03:17:13;;;;;;;8.18;1.85;;;15.00;99.90;;;;;;6152261;23;20052;-65
2021/08/27 03:19:45;;;;;;;8.13;1.73;;;14.90;99.90;;;;;;6150367;23;20070;-65
2021/08/27 03:22:24;;;;;;;4.68;1.73;;;14.90;99.90;;;;;;6151565;23;20072;-65
2021/08/27 03:24:59;;;;;;;8.65;2.00;;;14.90;99.90;;;;;;6151839;23;20109;-64
2021/08/27 03:27:30;;;;;;;7.32;1.73;;;14.90;99.90;;;;;;6151578;23;20021;-65
2021/08/27 03:30:01;;;;;;;7.57;1.83;;;14.90;99.90;;;;;;6151881;23;20372;-65
2021/08/27 03:32:28;;;;;;;7.97;1.60;;;14.90;99.90;;;;;;6151342;23;20060;-65
2021/08/27 03:34:54;;;;;;;6.40;1.70;;;14.90;99.90;;;;;;6150939;23;20017;-65
2021/08/27 03:37:21;;;;;;;7.15;2.25;;;14.80;99.90;;;;;;6151319;23;20068;-65
2021/08/27 03:39:47;;;;;;;9.00;2.00;;;14.80;99.90;;;;;;6150726;23;20052;-65
2021/08/27 03:42:17;;;;;;;8.40;2.17;;;14.80;99.90;;;;;;6126323;23;20041;-65
2021/08/27 03:44:45;;;;;;;4.45;1.42;;;14.80;99.90;;;;;;6151325;23;20048;-65
2021/08/27 03:47:13;;;;;;;8.70;2.25;;;14.70;99.90;;;;;;6125531;23;20121;-65
2021/08/27 03:49:39;;;;;;;12.48;2.50;;;14.60;99.90;;;;;;6126047;23;20018;-65
2021/08/27 03:52:05;;;;;;;8.52;1.75;;;14.60;99.90;;;;;;6150930;23;20061;-64
2021/08/27 03:54:33;;;;;;;8.18;1.75;;;14.50;99.90;;;;;;6151855;23;20072;-65
2021/08/27 03:57:01;;;;;;;11.15;2.92;;;14.50;99.90;;;;;;6151768;23;20018;-65
2021/08/27 03:59:28;;;;;;;7.85;2.38;;;14.50;99.90;;;;;;6152727;23;20017;-65
2021/08/27 04:01:54;;;;;;;11.80;2.78;;;14.40;99.90;;;;;;6151670;23;20021;-65
2021/08/27 04:04:22;;;;;;;5.90;2.10;;;14.40;99.90;;;;;;6152531;23;20027;-65
2021/08/27 04:06:59;;;;;;;5.60;1.77;;;14.40;99.90;;;;;;6152390;23;20433;-65
2021/08/27 04:09:30;;;;;;;10.25;2.25;;;14.30;99.90;;;;;;6152697;23;20017;-65
2021/08/27 04:11:56;;;;;;;9.30;1.93;;;14.30;99.90;;;;;;6152322;23;20010;-65
2021/08/27 04:14:22;;;;;;;11.43;2.53;;;14.30;99.90;;;;;;6152525;23;20276;-65
2021/08/27 04:16:48;;;;;;;9.25;2.83;;;14.30;99.90;;;;;;6151061;23;20359;-65
2021/08/27 04:19:14;;;;;;;8.80;2.22;;;14.30;99.90;;;;;;6125857;23;20021;-65
2021/08/27 04:21:40;;;;;;;9.48;2.28;;;14.40;99.90;;;;;;6150619;23;20013;-65
2021/08/27 04:24:06;;;;;;;10.82;2.45;;;14.40;99.90;;;;;;6151582;23;20633;-65
2021/08/27 04:26:33;;;;;;;9.13;2.05;;;14.40;99.90;;;;;;6151594;23;20024;-65
2021/08/27 04:28:58;;;;;;;8.82;2.55;;;14.40;99.90;;;;;;6151071;23;20018;-65
2021/08/27 04:31:24;;;;;;;13.48;3.05;;;14.50;99.90;;;;;;6150719;23;20018;-65
2021/08/27 04:33:50;;;;;;;11.52;2.95;;;14.50;99.90;;;;;;6123893;23;20032;-65
2021/08/27 04:36:15;;;;;;;7.38;2.20;;;14.50;99.90;;;;;;6151703;23;20047;-65
2021/08/27 04:38:41;;;;;;;6.63;2.40;;;14.50;99.90;;;;;;6153223;23;20013;-65
2021/08/27 04:41:07;;;;;;;9.38;3.10;;;14.50;99.90;;;;;;6153472;23;20014;-65
2021/08/27 04:43:32;;;;;;;9.52;2.55;;;14.60;99.90;;;;;;6153593;23;20037;-65
2021/08/27 04:45:58;;;;;;;8.70;2.67;;;14.60;99.90;;;;;;6152639;23;20056;-65
2021/08/27 04:48:25;;;;;;;9.32;2.42;;;14.60;99.90;;;;;;6125381;23;20100;-65
2021/08/27 04:50:51;;;;;;;7.85;2.40;;;14.60;99.90;;;;;;6126295;23;20069;-65
2021/08/27 04:53:16;;;;;;;8.30;2.40;;;14.70;99.90;;;;;;6152509;23;20022;-65
2021/08/27 04:55:42;;;;;;;8.10;2.20;;;14.70;99.90;;;;;;6101847;23;20525;-65
2021/08/27 04:58:07;;;;;;;8.07;2.40;;;14.70;99.90;;;;;;6152955;23;20045;-65
2021/08/27 05:00:33;;;;;;;11.20;2.30;;;14.70;99.90;;;;;;6152636;23;20014;-65
2021/08/27 05:02:58;;;;;;;10.80;2.25;;;14.70;99.90;;;;;;6153294;23;20045;-63
2021/08/27 05:05:24;;;;;;;9.80;2.10;;;14.70;99.90;;;;;;6152600;23;20039;-63
2021/08/27 05:07:50;;;;;;;8.40;2.70;;;14.70;99.90;;;;;;6126522;23;20021;-63
2021/08/27 05:10:15;;;;;;;10.27;2.28;;;14.70;99.90;;;;;;6153633;23;20013;-64
2021/08/27 05:12:41;;;;;;;13.13;2.38;;;14.80;99.90;;;;;;6152340;23;20646;-63
2021/08/27 05:15:08;;;;;;;6.40;2.22;;;14.90;99.90;;;;;;6127614;23;20080;-63
2021/08/27 05:17:33;;;;;;;13.02;2.38;;;14.90;99.90;;;;;;6153248;23;20158;-63
2021/08/27 05:19:59;;;;;;;8.88;2.35;;;14.90;99.90;;;;;;6152706;23;20091;-63
2021/08/27 05:22:25;;;;;;;12.30;3.20;;;15.00;99.90;;;;;;6124449;23;20344;-63
2021/08/27 05:24:50;;;;;;;8.75;2.60;;;15.00;99.90;;;;;;6152575;23;20009;-63
2021/08/27 05:27:16;;;;;;;11.10;2.25;;;15.00;99.90;;;;;;6152072;23;20017;-63
2021/08/27 05:29:41;;;;;;;7.28;2.47;;;15.00;99.90;;;;;;6153412;23;20017;-64
2021/08/27 05:32:07;;;;;;;10.02;2.55;;;15.10;99.90;;;;;;6152291;23;20429;-63
2021/08/27 05:34:33;;;;;;;6.57;2.08;;;15.00;99.90;;;;;;6153887;23;20096;-63
2021/08/27 05:36:58;;;;;;;7.35;2.13;;;15.10;99.90;;;;;;6127186;23;20044;-63
2021/08/27 05:39:27;;;;;;;8.60;2.60;;;15.10;99.90;;;;;;6151688;23;20440;-63
2021/08/27 05:41:54;;;;;;;10.85;2.45;;;15.20;99.90;;;;;;6152509;23;20028;-63
2021/08/27 05:44:20;;;;;;;8.95;3.13;;;15.20;99.90;;;;;;6127399;23;20021;-63
2021/08/27 05:46:45;;;;;;;12.00;2.67;;;15.20;99.90;;;;;;6153008;23;20067;-63
2021/08/27 05:49:11;;;;;;;9.73;2.53;;;15.20;99.90;;;;;;6153459;23;20068;-64
2021/08/27 05:51:36;;;;;;;8.35;2.60;;;15.20;99.90;;;;;;6150745;23;20009;-64
2021/08/27 05:54:02;;;;;;;6.97;2.08;;;15.20;99.90;;;;;;6152005;23;20017;-64
2021/08/27 05:56:28;;;;;;;8.73;2.20;;;15.30;99.90;;;;;;6151887;23;20084;-64
2021/08/27 05:58:53;;;;;;;6.45;1.85;;;15.40;99.90;;;;;;6151869;23;20056;-64
2021/08/27 06:01:19;;;;;;;7.60;1.83;;;15.40;99.90;;;;;;6152610;23;20013;-64
2021/08/27 06:03:44;;;;;;;7.95;2.03;;;15.40;99.90;;;;;;6152393;23;20025;-71
2021/08/27 06:06:10;;;;;;;8.95;2.00;;;15.50;99.90;;;;;;6151563;23;20021;-71
2021/08/27 06:08:36;;;;;;;8.40;2.05;;;15.50;99.90;;;;;;6125623;23;20100;-71
2021/08/27 06:11:02;;;;;;;7.47;2.08;;;15.40;99.90;;;;;;6102170;23;20016;-71
2021/08/27 06:13:27;;;;;;;8.63;1.88;;;15.50;99.90;;;;;;6152823;23;20013;-71
2021/08/27 06:15:53;;;;;;;11.13;1.90;;;15.50;99.90;;;;;;6126534;23;20419;-71
2021/08/27 06:18:18;;;;;;;8.23;2.20;;;15.50;99.90;;;;;;6152783;23;20052;-71
2021/08/27 06:20:44;;;;;;;7.72;2.25;;;15.50;99.90;;;;;;6127190;23;20069;-71
2021/08/27 06:23:09;;;;;;;9.73;2.65;;;15.50;99.90;;;;;;6125894;23;20017;-71
2021/08/27 06:25:35;;;;;;;7.25;2.17;;;15.50;99.90;;;;;;6151682;23;20013;-71
2021/08/27 06:28:01;;;;;;;9.13;2.13;;;15.60;99.90;;;;;;6126460;23;20013;-71
2021/08/27 06:30:27;;;;;;;6.30;1.98;;;15.60;99.90;;;;;;6126667;23;20013;-71
2021/08/27 06:32:53;;;;;;;6.10;1.42;;;15.70;99.90;;;;;;6151170;23;20010;-71
2021/08/27 06:35:18;;;;;;;6.50;2.33;;;15.80;99.90;;;;;;6150675;23;20329;-71
2021/08/27 06:40:28;;;;;;;6.93;1.77;;;15.90;99.90;;;;;;6125622;23;20018;-71
2021/08/27 06:42:54;;;;;;;6.95;2.10;;;16.00;99.90;;;;;;6152218;23;20009;-71
2021/08/27 06:45:19;;;;;;;11.27;2.05;;;16.00;99.90;;;;;;6151966;23;20061;-71
2021/08/27 06:47:45;;;;;;;8.90;1.70;;;16.00;99.90;;;;;;6122227;23;20017;-71
2021/08/27 06:50:11;;;;;;;6.25;1.77;;;16.10;99.90;;;;;;6152054;23;20016;-71
2021/08/27 06:52:36;;;;;;;5.93;1.55;;;16.20;99.90;;;;;;6146365;23;20009;-71
2021/08/27 06:55:02;;;;;;;9.18;1.73;;;16.20;99.90;;;;;;6181192;23;20022;-64
2021/08/27 06:57:28;;;;;;;8.80;1.80;;;16.10;99.90;;;;;;6156389;23;20024;-63
2021/08/27 06:59:54;;;;;;;5.97;2.03;;;16.20;99.90;;;;;;6181772;23;20009;-63
2021/08/27 07:02:19;;;;;;;6.88;1.30;;;16.20;99.90;;;;;;6156418;23;20144;-64
2021/08/27 07:04:45;;;;;;;5.80;1.40;;;16.30;99.90;;;;;;6181755;23;20020;-64
2021/08/27 07:07:10;;;;;;;5.93;1.70;;;16.40;99.90;;;;;;6182062;23;20815;-64
2021/08/27 07:09:36;;;;;;;7.82;1.90;;;16.50;99.90;;;;;;6182473;23;20506;-64
2021/08/27 07:12:01;;;;;;;7.97;1.45;;;16.50;99.90;;;;;;6179506;23;20012;-65
2021/08/27 07:14:27;;;;;;;5.95;1.38;;;16.60;99.90;;;;;;6178849;23;20013;-64
2021/08/27 07:16:53;;;;;;;8.40;1.95;;;16.80;99.90;;;;;;6181021;23;20428;-64
2021/08/27 07:19:18;;;;;;;9.00;1.42;;;16.90;99.90;;;;;;6179434;23;20009;-63
2021/08/27 07:21:44;;;;;;;8.45;1.42;;;17.00;99.90;;;;;;6179439;23;20017;-64
2021/08/27 07:24:09;;;;;;;7.50;1.80;;;17.00;99.90;;;;;;6180178;23;20321;-65
2021/08/27 07:26:35;;;;;;;11.35;1.60;;;17.00;99.90;;;;;;6181064;23;20024;-65
2021/08/27 07:29:01;;;;;;;8.52;1.58;;;17.00;99.90;;;;;;6153107;23;20019;-65
2021/08/27 07:31:26;;;;;;;16.13;2.97;;;17.00;99.90;;;;;;6181083;23;20052;-65
2021/08/27 07:33:52;;;;;;;15.65;3.15;;;16.80;99.90;;;;;;6180791;23;20040;-64
2021/08/27 07:36:17;;;;;;;12.82;2.30;;;16.40;99.90;;;;;;6181620;23;20031;-64
2021/08/27 07:38:44;;;;;;;10.32;1.90;;;16.00;99.90;;;;;;6181213;23;20025;-64
2021/08/27 07:41:09;;;;;;;11.40;2.30;;;15.60;99.90;;;;;;6156172;23;20104;-64
2021/08/27 07:43:35;;;;;;;10.02;1.92;;;15.70;99.90;;;;;;6181360;23;20020;-64
2021/08/27 07:46:00;;;;;;;8.98;1.90;;;15.90;99.90;;;;;;6180632;23;20013;-64
2021/08/27 07:48:27;;;;;;;9.25;1.98;;;16.20;99.90;;;;;;6155004;23;20017;-64
2021/08/27 07:50:53;;;;;;;8.13;1.95;;;16.40;99.90;;;;;;6182049;23;20032;-64
2021/08/27 07:53:19;;;;;;;8.48;1.70;;;16.50;99.90;;;;;;6156061;23;20618;-64
2021/08/27 07:55:45;;;;;;;9.45;1.92;;;16.50;99.90;;;;;;6182299;23;20092;-64
2021/08/27 07:58:10;;;;;;;8.32;2.45;;;16.50;99.90;;;;;;6155150;23;20017;-64
2021/08/27 08:00:36;;;;;;;5.55;1.80;;;16.50;99.90;;;;;;6181022;23;20041;-64
2021/08/27 08:03:01;;;;;;;8.10;2.15;;;16.50;99.90;;;;;;6155766;23;20084;-64
2021/08/27 08:05:27;;;;;;;7.38;1.95;;;16.50;99.90;;;;;;6181281;23;20053;-64
2021/08/27 08:07:53;;;;;;;5.50;1.52;;;16.60;99.90;;;;;;6154524;23;20016;-65
2021/08/27 08:10:18;;;;;;;6.97;1.95;;;16.50;99.90;;;;;;6155050;23;20009;-66
2021/08/27 08:12:44;;;;;;;5.75;1.77;;;16.50;99.90;;;;;;6180914;23;20009;-65
2021/08/27 08:15:10;;;;;;;8.63;1.67;;;16.50;99.90;;;;;;6132331;23;20016;-65
2021/08/27 08:17:36;;;;;;;7.00;1.77;;;16.60;99.90;;;;;;6182931;23;20107;-65
2021/08/27 08:20:03;;;;;;;7.40;1.90;;;16.80;99.90;;;;;;6155579;23;20083;-65
2021/08/27 08:22:28;;;;;;;5.63;1.90;;;16.90;99.90;;;;;;6156102;23;20013;-65
2021/08/27 08:24:54;;;;;;;5.22;1.80;;;17.10;99.90;;;;;;6182174;23;20080;-65
2021/08/27 08:27:19;;;;;;;7.28;2.15;;;17.40;99.90;;;;;;6183470;23;20021;-65
2021/08/27 08:29:45;;;;;;;9.82;2.20;;;17.70;99.90;;;;;;6183474;23;20009;-65
2021/08/27 08:32:11;;;;;;;7.63;1.88;;;17.90;99.90;;;;;;6183935;23;20013;-65
2021/08/27 08:34:36;;;;;;;8.80;1.50;;;18.10;99.90;;;;;;6154682;23;20009;-65
2021/08/27 08:37:02;;;;;;;4.70;1.60;;;18.20;99.90;;;;;;6156407;23;20045;-65
2021/08/27 08:39:28;;;;;;;6.93;1.77;;;18.00;99.90;;;;;;6180690;23;20036;-65
2021/08/27 08:41:54;;;;;;;8.20;1.67;;;18.30;99.90;;;;;;6155912;23;20017;-66
2021/08/27 08:44:19;;;;;;;6.72;1.92;;;18.50;99.90;;;;;;6183133;23;20017;-66
2021/08/27 08:46:47;;;;;;;7.93;2.25;;;18.60;99.90;;;;;;6181429;23;20024;-66
2021/08/27 08:49:14;;;;;;;6.65;2.00;;;18.60;99.90;;;;;;6180973;23;20320;-65
2021/08/27 08:51:51;;;;;;;9.75;2.40;;;18.60;99.90;;;;;;6166318;23;20031;-66
2021/08/27 08:54:18;;;;;;;7.43;1.80;;;18.30;99.90;;;;;;6150772;23;20020;-65
2021/08/27 08:56:44;;;;;;;5.70;1.80;;;18.20;99.90;;;;;;6151785;23;20041;-65
2021/08/27 08:59:11;;;;;;;9.48;2.63;;;18.40;99.90;;;;;;6153003;23;20307;-66
2021/08/27 09:01:37;;;;;;;5.82;2.40;;;18.60;99.90;;;;;;6152633;23;20528;-66
2021/08/27 09:04:03;;;;;;;7.97;2.15;;;18.70;99.90;;;;;;6126372;23;20013;-66
2021/08/27 09:06:30;;;;;;;7.28;2.50;;;19.00;99.90;;;;;;6129435;23;20089;-67
2021/08/27 09:08:59;;;;;;;7.25;3.03;;;19.10;99.90;;;;;;6151877;23;20500;-68
2021/08/27 09:11:27;;;;;;;9.70;1.92;;;19.10;99.90;;;;;;6127380;23;20645;-67
2021/08/27 09:13:58;;;;;;;6.88;1.73;;;19.30;99.90;;;;;;6152961;23;20020;-67
2021/08/27 09:16:26;;;;;;;7.53;2.27;;;19.50;99.90;;;;;;6152945;23;20460;-67
2021/08/27 09:18:52;;;;;;;6.35;1.48;;;19.40;99.90;;;;;;6151654;23;20320;-67
2021/08/27 09:21:34;;;;;;;4.65;1.80;;;19.50;99.90;;;;;;6150752;23;20444;-67
2021/08/27 09:24:21;;;;;;;6.97;2.10;;;19.60;99.90;;;;;;6152049;23;20096;-66
2021/08/27 09:26:51;;;;;;;6.03;2.22;;;19.50;99.90;;;;;;6152361;23;20109;-66
2021/08/27 09:29:43;;;;;;;6.38;2.22;;;19.50;99.90;;;;;;6153381;23;20069;-67
2021/08/27 09:32:29;;;;;;;6.95;2.22;;;19.40;99.90;;;;;;6152754;23;20009;-67
2021/08/27 09:35:09;;;;;;;6.50;2.17;;;19.20;99.90;;;;;;6151593;23;20024;-67
2021/08/27 09:37:37;;;;;;;7.22;2.28;;;19.00;99.90;;;;;;6153564;23;20018;-67
2021/08/27 09:40:04;;;;;;;5.85;2.00;;;18.90;99.90;;;;;;6151236;23;20018;-67
2021/08/27 09:42:45;;;;;;;6.28;2.25;;;18.60;99.90;;;;;;6153375;23;20020;-67
2021/08/27 09:45:12;;;;;;;6.82;2.15;;;18.70;99.90;;;;;;6152856;23;20377;-68
2021/08/27 09:47:38;;;;;;;4.80;1.65;;;18.90;99.90;;;;;;6151338;23;20468;-66
2021/08/27 09:50:21;;;;;;;6.53;2.08;;;19.30;99.90;;;;;;6151686;23;20009;-66
2021/08/27 09:52:58;;;;;;;6.70;2.17;;;19.70;99.90;;;;;;6151512;23;20079;-67
2021/08/27 09:55:25;;;;;;;7.88;2.20;;;20.00;99.90;;;;;;6126250;23;20425;-68
2021/08/27 09:57:52;;;;;;;7.55;2.05;;;20.10;99.90;;;;;;6153257;23;20088;-70
2021/08/27 10:00:19;;;;;;;7.03;2.15;;;20.00;99.90;;;;;;6151807;23;20013;-71
2021/08/27 10:02:45;;;;;;;8.20;2.00;;;19.90;99.90;;;;;;6150852;23;20064;-71
2021/08/27 10:05:11;;;;;;;6.15;2.10;;;19.40;99.90;;;;;;6126296;23;20021;-69
2021/08/27 10:07:38;;;;;;;5.70;1.70;;;19.40;99.90;;;;;;6149902;23;20029;-72
2021/08/27 10:10:11;;;;;;;6.55;1.65;;;19.10;99.90;;;;;;6150188;23;20020;-70
2021/08/27 10:12:39;;;;;;;8.05;2.35;;;18.90;99.90;;;;;;6125874;23;20017;-70
2021/08/27 10:15:07;;;;;;;6.35;1.67;;;19.00;99.90;;;;;;6126915;23;20445;-72
2021/08/27 10:17:37;;;;;;;6.63;1.65;;;19.20;99.90;;;;;;6125189;23;20028;-70
2021/08/27 10:20:08;;;;;;;5.10;1.73;;;19.10;99.90;;;;;;6149727;23;20013;-70
2021/08/27 10:22:42;;;;;;;6.32;1.60;;;19.20;99.90;;;;;;6125682;23;20020;-70
2021/08/27 10:25:12;;;;;;;5.40;1.60;;;19.50;99.90;;;;;;6151060;23;20021;-77
2021/08/27 10:27:38;;;;;;;6.53;2.42;;;19.30;99.90;;;;;;6150048;23;20077;-77
2021/08/27 10:30:06;;;;;;;3.85;1.40;;;19.40;99.90;;;;;;6151635;23;20338;-75
2021/08/27 10:32:41;;;;;;;4.78;1.90;;;19.90;99.90;;;;;;6150802;23;20027;-77
2021/08/27 10:35:30;;;;;;;6.72;2.05;;;20.30;99.90;;;;;;6151782;23;20041;-74
2021/08/27 10:37:56;;;;;;;5.05;1.60;;;20.20;99.90;;;;;;6150886;23;20017;-76
2021/08/27 10:40:21;;;;;;;4.68;1.80;;;20.00;99.90;;;;;;6151870;23;20037;-77
2021/08/27 10:42:49;;;;;;;3.60;1.35;;;19.60;99.90;;;;;;6150464;23;20010;-76
2021/08/27 10:45:16;;;;;;;5.45;1.50;;;19.30;99.90;;;;;;6126917;23;20020;-76
2021/08/27 10:48:18;;;;;;;3.38;1.48;;;19.30;99.90;;;;;;6151025;23;20021;-77
2021/08/27 10:50:47;;;;;;;5.88;1.35;;;19.20;99.90;;;;;;6150433;23;20550;-77
2021/08/27 10:53:26;;;;;;;4.03;2.05;;;19.40;99.90;;;;;;6151693;23;20013;-76
2021/08/27 10:55:53;;;;;;;3.67;1.52;;;19.50;99.90;;;;;;6151709;23;20028;-77
2021/08/27 10:58:24;;;;;;;4.70;1.85;;;19.80;99.90;;;;;;6150755;23;20041;-77
2021/08/27 11:00:53;;;;;;;7.25;2.00;;;19.80;99.90;;;;;;6151085;23;20020;-76
2021/08/27 11:03:21;;;;;;;7.80;1.90;;;19.10;99.90;;;;;;6151739;23;20021;-76
2021/08/27 11:05:50;;;;;;;6.97;2.05;;;19.20;99.90;;;;;;6151033;23;20463;-75
2021/08/27 11:08:17;;;;;;;4.47;1.88;;;18.70;99.90;;;;;;6155131;23;20602;-75
2021/08/27 11:11:04;;;;;;;4.75;1.70;;;18.40;99.90;;;;;;6156877;23;20333;-76
2021/08/27 11:13:38;;;;;;;5.05;2.13;;;18.40;99.90;;;;;;6156341;23;20021;-76
2021/08/27 11:16:22;;;;;;;7.57;1.88;;;18.20;99.90;;;;;;6154629;23;20856;-75
2021/08/27 11:18:49;;;;;;;7.50;1.80;;;18.10;99.90;;;;;;6131058;23;20618;-75
2021/08/27 11:21:33;;;;;;;5.65;1.80;;;17.90;99.90;;;;;;6156496;23;20013;-75
2021/08/27 11:24:18;;;;;;;4.15;1.38;;;17.90;99.90;;;;;;6131490;23;20009;-76
2021/08/27 11:26:48;;;;;;;4.85;1.60;;;17.90;99.90;;;;;;6154605;23;20009;-75
2021/08/27 11:29:49;;;;;;;10.50;2.40;;;18.00;99.90;;;;;;6129600;23;20025;-73
2021/08/27 11:32:27;;;;;;;5.37;2.13;;;18.40;99.90;;;;;;6110010;23;20051;-73
2021/08/27 11:35:05;;;;;;;6.40;1.92;;;18.30;99.90;;;;;;6156163;23;20388;-72
2021/08/27 11:37:41;;;;;;;4.80;1.80;;;18.50;99.90;;;;;;6155602;23;20013;-72
2021/08/27 11:40:09;;;;;;;6.53;1.92;;;18.60;99.90;;;;;;6155871;23;20027;-72
2021/08/27 11:42:37;;;;;;;5.53;2.20;;;18.70;99.90;;;;;;6155622;23;20017;-72
2021/08/27 11:45:10;;;;;;;5.32;1.98;;;19.00;99.90;;;;;;6181708;23;20071;-72
2021/08/27 11:47:39;;;;;;;6.82;1.88;;;19.20;99.90;;;;;;6182292;23;20056;-73
2021/08/27 11:50:08;;;;;;;5.20;1.75;;;19.40;99.90;;;;;;6130891;23;20035;-73
2021/08/27 11:52:35;;;;;;;5.57;1.65;;;19.60;99.90;;;;;;6156164;23;20444;-72
2021/08/27 11:55:06;;;;;;;7.20;1.30;;;20.00;99.90;;;;;;6156359;23;20075;-73
2021/08/27 11:57:33;;;;;;;5.45;1.30;;;20.00;99.90;;;;;;6182412;23;20013;-73
2021/08/27 12:00:07;;;;;;;3.25;1.30;;;19.80;99.90;;;;;;6181992;23;20068;-73
2021/08/27 12:02:33;;;;;;;3.08;1.20;;;19.80;99.90;;;;;;6130944;23;20009;-72
2021/08/27 12:05:01;;;;;;;4.35;1.30;;;19.90;99.90;;;;;;6155822;23;20084;-73
2021/08/27 12:07:28;;;;;;;3.95;1.60;;;19.50;99.90;;;;;;6150417;23;20071;-73
2021/08/27 12:10:11;;;;;;;8.05;1.92;;;19.70;99.90;;;;;;6150523;23;20028;-72
2021/08/27 12:12:38;;;;;;;6.32;1.77;;;19.70;99.90;;;;;;6126314;23;20512;-72
2021/08/27 12:15:06;;;;;;;3.90;1.40;;;19.70;99.90;;;;;;6151034;23;20493;-72
2021/08/27 12:17:31;;;;;;;7.20;2.00;;;19.70;99.90;;;;;;6150871;23;20073;-72
2021/08/27 12:20:01;;;;;;;5.70;1.65;;;19.80;99.90;;;;;;6150565;23;20018;-72
2021/08/27 12:22:34;;;;;;;5.40;1.88;;;19.80;99.90;;;;;;6152742;23;20088;-72
2021/08/27 12:25:00;;;;;;;6.30;1.58;;;19.70;99.90;;;;;;6152139;23;20516;-72
2021/08/27 12:27:26;;;;;;;6.32;1.83;;;19.80;99.90;;;;;;6150525;23;20017;-72
2021/08/27 12:30:12;;;;;;;5.53;1.60;;;19.80;99.90;;;;;;6150434;23;20016;-73
2021/08/27 12:32:42;;;;;;;8.85;2.35;;;19.70;99.90;;;;;;6150472;23;20022;-72
2021/08/27 12:35:10;;;;;;;6.85;1.98;;;19.60;99.90;;;;;;6150431;23;20012;-72
2021/08/27 12:37:37;;;;;;;6.60;1.55;;;19.60;99.90;;;;;;6150480;23;20010;-72
2021/08/27 12:40:12;;;;;;;6.55;1.98;;;19.60;99.90;;;;;;6125938;23;20040;-72
2021/08/27 12:42:39;;;;;;;6.80;2.20;;;19.50;99.90;;;;;;6150534;23;20020;-72
2021/08/27 12:45:07;;;;;;;5.30;1.90;;;19.40;99.90;;;;;;6152174;23;20438;-72
2021/08/27 12:47:36;;;;;;;4.75;1.85;;;19.30;99.90;;;;;;6125954;23;20457;-72
2021/08/27 12:50:05;;;;;;;5.10;1.98;;;19.30;99.90;;;;;;6150350;23;20017;-73
2021/08/27 12:52:31;;;;;;;8.27;2.30;;;19.30;99.90;;;;;;6152143;23;20068;-70
2021/08/27 12:54:57;;;;;;;5.97;2.00;;;19.40;99.90;;;;;;6150415;23;20017;-71